createdAt,value
2018-02-11T00:01:24.819Z,93.14
2018-02-11T00:03:53.503Z,93.20
2018-02-11T00:06:23.726Z,93.20
2018-02-11T00:08:53.339Z,93.33
2018-02-11T00:11:21.822Z,93.38
2018-02-11T00:13:52.150Z,93.52
2018-02-11T00:16:23.259Z,93.52
2018-02-11T00:18:54.339Z,93.50
2018-02-11T00:21:22.922Z,93.45
2018-02-11T00:23:51.495Z,93.47
2018-02-11T00:26:19.986Z,93.42
2018-02-11T00:28:48.681Z,93.49
2018-02-11T00:31:22.490Z,93.43
2018-02-11T00:33:53.417Z,93.38
2018-02-11T00:36:21.897Z,93.39
2018-02-11T00:38:52.239Z,93.41
2018-02-11T00:41:23.281Z,93.43
2018-02-11T00:43:55.242Z,93.46
2018-02-11T00:46:25.401Z,93.51
2018-02-11T00:48:55.745Z,93.46
2018-02-11T00:51:25.214Z,93.46
2018-02-11T00:53:55.384Z,93.45
2018-02-11T00:56:25.777Z,93.48
2018-02-11T00:58:58.321Z,93.46
2018-02-11T01:01:28.609Z,93.49
2018-02-11T01:04:00.815Z,93.53
2018-02-11T01:06:29.318Z,93.58
2018-02-11T01:08:57.895Z,93.61
2018-02-11T01:11:27.221Z,93.68
2018-02-11T01:13:55.674Z,93.70
2018-02-11T01:16:29.844Z,93.69
2018-02-11T01:19:00.086Z,93.74
2018-02-11T01:21:30.951Z,93.75
2018-02-11T01:24:02.202Z,93.79
2018-02-11T01:26:30.791Z,93.83
2018-02-11T01:29:00.002Z,93.82
2018-02-11T01:31:31.189Z,93.75
2018-02-11T01:34:00.663Z,93.72
2018-02-11T01:36:29.958Z,93.66
2018-02-11T01:39:00.232Z,93.56
2018-02-11T01:41:31.175Z,93.47
2018-02-11T01:44:00.411Z,93.41
2018-02-11T01:46:28.997Z,93.31
2018-02-11T01:48:59.086Z,93.17
2018-02-11T01:51:41.900Z,93.09
2018-02-11T01:54:13.417Z,92.99
2018-02-11T01:56:42.072Z,92.82
2018-02-11T01:59:10.490Z,92.66
2018-02-11T02:01:39.861Z,92.63
2018-02-11T02:04:16.412Z,92.37
2018-02-11T02:06:45.025Z,92.26
2018-02-11T02:09:15.108Z,92.23
2018-02-11T02:11:44.007Z,92.19
2018-02-11T02:14:15.380Z,92.15
2018-02-11T02:16:43.946Z,92.03
2018-02-11T02:19:14.475Z,91.88
2018-02-11T02:21:44.495Z,91.75
2018-02-11T02:24:23.232Z,91.78
2018-02-11T02:26:52.841Z,91.81
2018-02-11T02:29:33.910Z,91.86
2018-02-11T02:32:04.517Z,91.77
2018-02-11T02:34:33.997Z,91.72
2018-02-11T02:37:02.641Z,91.70
2018-02-11T02:39:31.130Z,91.65
2018-02-11T02:41:59.712Z,91.61
2018-02-11T02:44:41.197Z,91.61
2018-02-11T02:47:10.221Z,91.46
2018-02-11T02:49:43.941Z,91.62
2018-02-11T02:52:15.707Z,91.35
2018-02-11T02:54:50.933Z,91.20
2018-02-11T02:57:19.489Z,91.16
2018-02-11T02:59:51.573Z,91.27
2018-02-11T03:02:21.986Z,91.22
2018-02-11T03:04:53.010Z,91.37
2018-02-11T03:07:23.300Z,91.32
2018-02-11T03:09:54.995Z,91.20
2018-02-11T03:12:23.462Z,91.19
2018-02-11T03:14:52.064Z,91.14
2018-02-11T03:17:22.338Z,91.21
2018-02-11T03:19:53.965Z,91.00
2018-02-11T03:22:22.534Z,91.02
2018-02-11T03:24:51.098Z,90.98
2018-02-11T03:27:19.604Z,90.94
2018-02-11T03:29:48.480Z,90.93
2018-02-11T03:32:30.478Z,90.88
2018-02-11T03:35:00.167Z,90.82
2018-02-11T03:37:28.785Z,90.77
2018-02-11T03:39:57.464Z,90.67
2018-02-11T03:42:25.964Z,90.54
2018-02-11T03:44:57.510Z,90.34
2018-02-11T03:47:25.972Z,90.34
2018-02-11T03:49:56.153Z,90.59
2018-02-11T03:52:32.651Z,90.53
2018-02-11T03:55:02.868Z,90.54
2018-02-11T03:57:31.500Z,90.50
2018-02-11T04:00:00.187Z,90.57
2018-02-11T04:02:30.642Z,90.54
2018-02-11T04:05:01.648Z,90.40
2018-02-11T04:07:30.296Z,90.74
2018-02-11T04:10:00.523Z,90.86
2018-02-11T04:12:29.774Z,91.19
2018-02-11T04:14:59.984Z,91.22
2018-02-11T04:17:31.236Z,91.43
2018-02-11T04:20:02.274Z,91.65
2018-02-11T04:22:30.966Z,91.79
2018-02-11T04:25:03.359Z,91.62
2018-02-11T04:27:43.876Z,91.49
2018-02-11T04:30:19.145Z,91.74
2018-02-11T04:32:49.282Z,91.77
2018-02-11T04:35:18.056Z,91.77
2018-02-11T04:37:48.655Z,91.82
2018-02-11T04:40:40.946Z,91.63
2018-02-11T04:43:11.514Z,91.45
2018-02-11T04:45:40.130Z,91.41
2018-02-11T04:48:15.842Z,91.29
2018-02-11T04:50:46.404Z,91.58
2018-02-11T04:53:19.030Z,91.59
2018-02-11T04:55:48.396Z,91.44
2018-02-11T04:58:16.821Z,91.61
2018-02-11T05:00:45.253Z,91.57
2018-02-11T05:03:16.900Z,91.33
2018-02-11T05:05:48.194Z,91.14
2018-02-11T05:08:19.176Z,91.50
2018-02-11T05:10:47.694Z,91.77
2018-02-11T05:13:33.462Z,91.86
2018-02-11T05:16:05.131Z,91.69
2018-02-11T05:18:35.214Z,91.82
2018-02-11T05:21:03.718Z,92.13
2018-02-11T05:23:33.033Z,91.88
2018-02-11T05:26:01.911Z,92.13
2018-02-11T05:28:31.242Z,92.15
2018-02-11T05:30:59.710Z,92.38
2018-02-11T05:33:28.185Z,92.21
2018-02-11T05:35:59.838Z,92.15
2018-02-11T05:38:45.744Z,92.20
2018-02-11T05:41:15.047Z,92.16
2018-02-11T05:43:44.483Z,92.23
2018-02-11T05:46:13.131Z,92.12
2018-02-11T05:48:41.706Z,92.05
2018-02-11T05:51:12.712Z,91.86
2018-02-11T05:53:42.966Z,91.85
2018-02-11T05:56:16.072Z,91.64
2018-02-11T05:58:47.976Z,91.68
2018-02-11T06:01:18.565Z,91.54
2018-02-11T06:03:48.841Z,91.69
2018-02-11T06:06:28.373Z,91.62
2018-02-11T06:08:57.007Z,91.29
2018-02-11T06:11:28.571Z,92.03
2018-02-11T06:13:57.873Z,91.78
2018-02-11T06:16:30.237Z,92.00
2018-02-11T06:19:03.103Z,92.10
2018-02-11T06:21:33.532Z,92.14
2018-02-11T06:24:03.653Z,91.99
2018-02-11T06:26:35.164Z,91.65
2018-02-11T06:29:03.887Z,91.74
2018-02-11T06:31:39.154Z,91.75
2018-02-11T06:34:07.638Z,91.70
2018-02-11T06:36:36.081Z,91.73
2018-02-11T06:39:06.219Z,91.70
2018-02-11T06:41:40.861Z,92.02
2018-02-11T06:44:11.073Z,91.97
2018-02-11T06:46:46.538Z,91.78
2018-02-11T06:49:16.765Z,91.77
2018-02-11T06:51:48.083Z,91.77
2018-02-11T06:54:18.539Z,91.54
2018-02-11T06:56:48.822Z,91.47
2018-02-11T06:59:21.335Z,91.67
2018-02-11T07:01:51.499Z,91.66
2018-02-11T07:04:20.110Z,91.50
2018-02-11T07:06:56.217Z,91.65
2018-02-11T07:09:26.499Z,91.57
2018-02-11T07:11:56.823Z,91.57
2018-02-11T07:14:45.716Z,91.64
2018-02-11T07:17:16.935Z,91.88
2018-02-11T07:19:47.261Z,91.84
2018-02-11T07:22:19.918Z,91.75
2018-02-11T07:24:50.082Z,91.71
2018-02-11T07:27:18.824Z,91.72
2018-02-11T07:29:50.051Z,91.81
2018-02-11T07:32:44.415Z,91.59
2018-02-11T07:35:14.685Z,91.26
2018-02-11T07:37:47.305Z,91.19
2018-02-11T07:40:18.406Z,91.13
2018-02-11T07:42:47.005Z,91.05
2018-02-11T07:45:18.167Z,91.08
2018-02-11T07:47:47.588Z,90.55
2018-02-11T07:50:29.469Z,90.86
2018-02-11T07:52:59.609Z,90.89
2018-02-11T07:55:29.914Z,90.83
2018-02-11T07:58:02.437Z,90.91
2018-02-11T08:00:32.791Z,90.87
2018-02-11T08:03:11.939Z,90.74
2018-02-11T08:05:40.749Z,90.49
2018-02-11T08:08:11.151Z,89.91
2018-02-11T08:10:41.086Z,89.27
2018-02-11T08:13:10.270Z,88.69
2018-02-11T08:15:40.529Z,87.73
2018-02-11T08:18:10.737Z,87.37
2018-02-11T08:20:41.272Z,87.31
2018-02-11T08:23:12.308Z,87.23
2018-02-11T08:25:42.016Z,86.95
2018-02-11T08:28:10.504Z,86.85
2018-02-11T08:30:41.673Z,86.77
2018-02-11T08:33:12.064Z,86.35
2018-02-11T08:35:44.498Z,86.41
2018-02-11T08:38:13.733Z,86.25
2018-02-11T08:40:47.910Z,85.78
2018-02-11T08:43:17.257Z,85.04
2018-02-11T08:45:47.328Z,84.73
2018-02-11T08:48:18.833Z,84.43
2018-02-11T08:50:47.417Z,83.65
2018-02-11T08:53:19.996Z,83.08
2018-02-11T08:55:48.684Z,82.50
2018-02-11T08:58:17.488Z,82.10
2018-02-11T09:00:46.674Z,82.32
2018-02-11T09:03:15.256Z,82.42
2018-02-11T09:05:43.914Z,82.12
2018-02-11T09:08:14.668Z,81.06
2018-02-11T09:10:44.843Z,81.62
2018-02-11T09:13:15.221Z,81.47
2018-02-11T09:15:46.746Z,82.05
2018-02-11T09:18:17.854Z,82.05
2018-02-11T09:20:46.629Z,81.91
2018-02-11T09:23:18.318Z,82.30
2018-02-11T09:25:48.599Z,82.19
2018-02-11T09:28:17.195Z,81.82
2018-02-11T09:30:48.475Z,81.34
2018-02-11T09:33:18.651Z,81.14
2018-02-11T09:35:47.243Z,80.68
2018-02-11T09:38:15.790Z,79.80
2018-02-11T09:40:46.926Z,78.82
2018-02-11T09:43:20.317Z,78.08
2018-02-11T09:45:50.818Z,78.18
2018-02-11T09:48:20.216Z,76.88
2018-02-11T09:50:50.396Z,76.46
2018-02-11T09:53:40.689Z,75.60
2018-02-11T09:56:11.800Z,76.40
2018-02-11T09:58:40.357Z,76.37
2018-02-11T10:01:14.474Z,75.71
2018-02-11T10:03:47.870Z,76.10
2018-02-11T10:06:21.823Z,76.69
2018-02-11T10:08:51.400Z,77.31
2018-02-11T10:11:22.035Z,75.90
2018-02-11T10:13:53.365Z,76.29
2018-02-11T10:16:42.395Z,76.39
2018-02-11T10:19:16.725Z,76.96
2018-02-11T10:21:46.305Z,76.05
2018-02-11T10:24:15.551Z,76.60
2018-02-11T10:26:46.664Z,75.75
2018-02-11T10:29:23.279Z,76.58
2018-02-11T10:31:51.949Z,76.21
2018-02-11T10:34:21.943Z,76.53
2018-02-11T10:36:56.279Z,76.35
2018-02-11T10:39:24.743Z,76.68
2018-02-11T10:41:53.457Z,75.12
2018-02-11T10:44:25.942Z,75.46
2018-02-11T10:46:54.532Z,75.42
2018-02-11T10:49:23.934Z,75.18
2018-02-11T10:51:55.334Z,74.28
2018-02-11T10:54:28.906Z,74.62
2018-02-11T10:56:58.291Z,75.14
2018-02-11T10:59:29.492Z,74.50
2018-02-11T11:02:02.809Z,73.63
2018-02-11T11:04:31.358Z,73.54
2018-02-11T11:06:59.881Z,73.92
2018-02-11T11:09:29.791Z,73.81
2018-02-11T11:11:58.400Z,73.96
2018-02-11T11:14:27.659Z,73.44
2018-02-11T11:16:56.918Z,72.41
2018-02-11T11:19:25.594Z,72.50
2018-02-11T11:21:54.209Z,72.14
2018-02-11T11:24:35.254Z,72.49
2018-02-11T11:27:06.267Z,72.31
2018-02-11T11:29:51.468Z,72.70
2018-02-11T11:32:22.331Z,72.55
2018-02-11T11:34:51.083Z,72.98
2018-02-11T11:39:52.707Z,73.42
2018-02-11T11:42:21.203Z,76.00
2018-02-11T11:44:52.340Z,78.46
2018-02-11T11:47:23.783Z,80.19
2018-02-11T11:49:53.456Z,81.26
2018-02-11T11:52:23.879Z,81.77
2018-02-11T11:54:53.281Z,82.04
2018-02-11T11:57:24.120Z,82.46
2018-02-11T11:59:54.737Z,83.33
2018-02-11T12:02:23.556Z,83.08
2018-02-11T12:04:53.631Z,83.86
2018-02-11T12:07:41.118Z,83.15
2018-02-11T12:10:16.836Z,82.31
2018-02-11T12:15:32.655Z,83.30
2018-02-11T12:18:01.939Z,83.46
2018-02-11T12:20:32.351Z,83.66
2018-02-11T12:23:00.948Z,84.05
2018-02-11T12:25:30.387Z,85.34
2018-02-11T12:27:59.058Z,85.93
2018-02-11T12:30:29.229Z,86.89
2018-02-11T12:32:57.773Z,87.06
2018-02-11T12:35:28.383Z,87.42
2018-02-11T12:38:16.045Z,87.70
2018-02-11T12:40:55.143Z,88.47
2018-02-11T12:43:30.155Z,88.74
2018-02-11T12:45:58.752Z,88.56
2018-02-11T12:48:28.932Z,88.97
2018-02-11T12:50:57.880Z,88.28
2018-02-11T12:53:28.218Z,88.16
2018-02-11T12:55:56.772Z,88.54
2018-02-11T12:58:25.362Z,89.13
2018-02-11T13:01:07.660Z,89.06
2018-02-11T13:03:37.935Z,88.75
2018-02-11T13:06:09.034Z,89.17
2018-02-11T13:08:39.219Z,89.34
2018-02-11T13:11:07.751Z,89.77
2018-02-11T13:13:38.056Z,90.25
2018-02-11T13:16:09.426Z,90.53
2018-02-11T13:18:38.880Z,90.54
2018-02-11T13:21:07.412Z,91.09
2018-02-11T13:23:43.372Z,91.53
2018-02-11T13:26:20.273Z,91.68
2018-02-11T13:28:50.978Z,92.02
2018-02-11T13:31:23.230Z,92.21
2018-02-11T13:33:51.939Z,92.49
2018-02-11T13:36:22.349Z,92.31
2018-02-11T13:38:51.059Z,92.60
2018-02-11T13:41:21.378Z,92.72
2018-02-11T13:43:53.923Z,92.79
2018-02-11T13:46:28.890Z,92.79
2018-02-11T13:48:57.479Z,92.81
2018-02-11T13:51:34.274Z,92.89
2018-02-11T13:54:02.936Z,92.94
2018-02-11T13:56:34.092Z,93.00
2018-02-11T13:59:05.336Z,92.79
2018-02-11T14:01:44.630Z,92.84
2018-02-11T14:04:15.495Z,92.78
2018-02-11T14:06:44.724Z,92.89
2018-02-11T14:09:14.792Z,93.17
2018-02-11T14:11:49.177Z,93.08
2018-02-11T14:14:18.646Z,93.04
2018-02-11T14:16:49.706Z,93.17
2018-02-11T14:19:20.421Z,93.18
2018-02-11T14:21:49.122Z,93.44
2018-02-11T14:24:22.403Z,93.61
2018-02-11T14:26:53.977Z,93.84
2018-02-11T14:29:24.284Z,94.07
2018-02-11T14:31:55.530Z,94.13
2018-02-11T14:34:25.736Z,94.23
2018-02-11T14:36:58.410Z,94.32
2018-02-11T14:39:29.479Z,94.43
2018-02-11T14:41:58.068Z,94.51
2018-02-11T14:44:26.761Z,94.75
2018-02-11T14:46:56.276Z,94.81
2018-02-11T14:49:25.590Z,94.93
2018-02-11T14:51:56.893Z,95.01
2018-02-11T14:54:30.270Z,95.25
2018-02-11T14:57:01.594Z,95.20
2018-02-11T14:59:30.235Z,95.20
2018-02-11T15:02:00.588Z,95.39
2018-02-11T15:04:31.558Z,95.53
2018-02-11T15:07:17.545Z,95.54
2018-02-11T15:09:48.250Z,95.42
2018-02-11T15:12:17.232Z,95.46
2018-02-11T15:14:48.431Z,95.76
2018-02-11T15:17:17.174Z,95.90
2018-02-11T15:19:46.997Z,96.11
2018-02-11T15:22:17.435Z,96.33
2018-02-11T15:24:48.747Z,96.39
2018-02-11T15:27:19.121Z,96.38
2018-02-11T15:29:50.158Z,96.34
2018-02-11T15:32:20.585Z,96.36
2018-02-11T15:34:50.007Z,96.38
2018-02-11T15:37:18.864Z,96.54
2018-02-11T15:39:47.513Z,96.68
2018-02-11T15:42:19.418Z,96.68
2018-02-11T15:44:50.347Z,96.67
2018-02-11T15:47:18.829Z,96.65
2018-02-11T15:49:47.728Z,96.79
2018-02-11T15:52:16.325Z,96.88
2018-02-11T15:54:46.232Z,97.11
2018-02-11T15:57:19.638Z,97.32
2018-02-11T15:59:52.515Z,97.59
2018-02-11T16:02:21.988Z,97.67
2018-02-11T16:04:51.339Z,97.77
2018-02-11T16:07:21.738Z,97.84
2018-02-11T16:09:52.686Z,97.90
2018-02-11T16:12:22.798Z,97.95
2018-02-11T16:14:51.505Z,97.98
2018-02-11T16:17:21.105Z,98.06
2018-02-11T16:19:53.546Z,98.09
2018-02-11T16:22:22.101Z,98.13
2018-02-11T16:24:53.682Z,98.18
2018-02-11T16:27:25.424Z,98.33
2018-02-11T16:29:56.480Z,98.35
2018-02-11T16:32:25.532Z,98.46
2018-02-11T16:34:54.316Z,98.52
2018-02-11T16:37:23.633Z,98.61
2018-02-11T16:39:54.126Z,98.76
2018-02-11T16:42:26.882Z,98.86
2018-02-11T16:44:55.644Z,98.89
2018-02-11T16:47:27.685Z,98.99
2018-02-11T16:49:57.971Z,98.99
2018-02-11T16:52:30.763Z,99.00
2018-02-11T16:55:00.213Z,99.04
2018-02-11T17:00:22.345Z,99.09
2018-02-11T17:02:56.869Z,99.11
2018-02-11T17:05:27.302Z,99.17
2018-02-11T17:07:58.099Z,99.21
2018-02-11T17:10:29.547Z,99.26
2018-02-11T17:12:58.304Z,99.29
2018-02-11T17:15:27.059Z,99.40
2018-02-11T17:17:57.404Z,99.49
2018-02-11T17:20:29.260Z,99.51
2018-02-11T17:22:59.683Z,99.51
2018-02-11T17:25:30.549Z,99.46
2018-02-11T17:27:59.155Z,99.41
2018-02-11T17:30:27.889Z,99.40
2018-02-11T17:32:59.345Z,99.40
2018-02-11T17:35:29.649Z,99.41
2018-02-11T17:38:02.456Z,99.40
2018-02-11T17:40:32.871Z,99.39
2018-02-11T17:43:03.867Z,99.40
2018-02-11T17:45:33.429Z,99.43
2018-02-11T17:48:02.220Z,99.52
2018-02-11T17:50:37.668Z,99.49
2018-02-11T17:53:06.769Z,99.44
2018-02-11T17:55:37.210Z,99.40
2018-02-11T17:58:06.646Z,99.46
2018-02-11T18:00:35.307Z,99.55
2018-02-11T18:03:20.313Z,99.59
2018-02-11T18:05:49.037Z,99.61
2018-02-11T18:08:21.211Z,99.62
2018-02-11T18:10:58.077Z,99.70
2018-02-11T18:13:28.691Z,99.72
2018-02-11T18:15:57.398Z,99.72
2018-02-11T18:18:28.561Z,99.77
2018-02-11T18:21:00.207Z,99.89
2018-02-11T18:23:28.902Z,99.95
2018-02-11T18:26:00.118Z,100.00
2018-02-11T18:28:30.383Z,100.00
2018-02-11T18:30:59.050Z,100.00
2018-02-11T18:33:27.844Z,100.00
2018-02-11T18:35:57.283Z,100.00
2018-02-11T18:38:25.836Z,100.00
2018-02-11T18:40:56.327Z,100.00
2018-02-11T18:43:25.055Z,100.00
2018-02-11T18:45:53.745Z,100.00
2018-02-11T18:48:22.438Z,100.00
2018-02-11T18:50:50.985Z,100.00
2018-02-11T18:53:19.593Z,100.00
2018-02-11T18:55:48.298Z,100.00
2018-02-11T18:58:21.936Z,100.00
2018-02-11T19:00:50.581Z,100.00
2018-02-11T19:03:19.273Z,100.00
2018-02-11T19:05:48.789Z,100.00
2018-02-11T19:08:23.619Z,100.00
2018-02-11T19:10:52.153Z,99.99
2018-02-11T19:13:20.928Z,99.96
2018-02-11T19:15:50.283Z,99.90
2018-02-11T19:18:25.269Z,99.91
2018-02-11T19:20:55.643Z,99.85
2018-02-11T19:23:25.063Z,99.81
2018-02-11T19:25:54.624Z,99.78
2018-02-11T19:28:24.155Z,99.75
2018-02-11T19:31:02.119Z,99.75
2018-02-11T19:33:30.760Z,99.75
2018-02-11T19:36:00.865Z,99.71
2018-02-11T19:38:32.536Z,99.71
2018-02-11T19:41:03.011Z,99.74
2018-02-11T19:43:32.496Z,99.72
2018-02-11T19:46:02.781Z,99.75
2018-02-11T19:48:36.527Z,99.68
2018-02-11T19:51:07.163Z,99.62
2018-02-11T19:53:41.398Z,99.67
2018-02-11T19:56:10.809Z,99.69
2018-02-11T19:58:40.208Z,99.68
2018-02-11T20:01:12.335Z,99.72
2018-02-11T20:03:41.027Z,99.75
2018-02-11T20:06:09.819Z,99.74
2018-02-11T20:08:38.513Z,99.74
2018-02-11T20:11:08.778Z,99.75
2018-02-11T20:13:40.901Z,99.73
2018-02-11T20:16:11.423Z,99.75
2018-02-11T20:18:40.317Z,99.74
2018-02-11T20:21:09.449Z,99.72
2018-02-11T20:23:38.204Z,99.68
2018-02-11T20:26:06.901Z,99.66
2018-02-11T20:28:36.745Z,99.65
2018-02-11T20:31:05.711Z,99.64
2018-02-11T20:33:34.424Z,99.63
2018-02-11T20:36:05.750Z,99.60
2018-02-11T20:38:36.308Z,99.63
2018-02-11T20:41:07.925Z,99.64
2018-02-11T20:43:36.634Z,99.64
2018-02-11T20:46:06.446Z,99.66
2018-02-11T20:48:35.141Z,99.67
2018-02-11T20:51:04.134Z,99.66
2018-02-11T20:53:34.542Z,99.65
2018-02-11T20:56:04.078Z,99.65
2018-02-11T20:58:32.758Z,99.64
2018-02-11T21:01:03.247Z,99.65
2018-02-11T21:03:33.478Z,99.64
2018-02-11T21:06:05.343Z,99.65
2018-02-11T21:08:35.588Z,99.68
2018-02-11T21:11:07.478Z,99.65
2018-02-11T21:13:37.822Z,99.61
2018-02-11T21:16:09.950Z,99.56
2018-02-11T21:18:38.436Z,99.49
2018-02-11T21:21:09.779Z,99.42
2018-02-11T21:23:40.806Z,99.34
2018-02-11T21:26:11.060Z,99.27
2018-02-11T21:28:42.240Z,99.21
2018-02-11T21:31:22.339Z,99.16
2018-02-11T21:33:52.536Z,99.20
2018-02-11T21:36:21.481Z,99.25
2018-02-11T21:38:54.678Z,99.24
2018-02-11T21:41:25.896Z,99.27
2018-02-11T21:43:54.596Z,99.36
2018-02-11T21:46:25.887Z,99.39
2018-02-11T21:48:54.521Z,99.36
2018-02-11T21:51:23.114Z,99.33
2018-02-11T21:53:53.306Z,99.29
2018-02-11T21:56:22.919Z,99.28
2018-02-11T21:58:53.495Z,99.31
2018-02-11T22:01:24.466Z,99.28
2018-02-11T22:03:52.983Z,99.29
2018-02-11T22:06:21.493Z,99.28
2018-02-11T22:08:50.806Z,99.27
2018-02-11T22:11:22.020Z,99.27
2018-02-11T22:13:50.730Z,99.26
2018-02-11T22:16:29.057Z,99.24
2018-02-11T22:18:58.762Z,99.23
2018-02-11T22:21:28.071Z,99.23
2018-02-11T22:23:56.600Z,99.25
2018-02-11T22:26:25.125Z,99.22
2018-02-11T22:28:53.607Z,99.18
2018-02-11T22:31:22.834Z,99.19
2018-02-11T22:34:09.826Z,99.16
2018-02-11T22:36:43.027Z,99.14
2018-02-11T22:39:14.521Z,99.13
2018-02-11T22:41:45.567Z,99.12
2018-02-11T22:44:19.178Z,99.08
2018-02-11T22:46:47.701Z,99.09
2018-02-11T22:49:17.835Z,99.07
2018-02-11T22:51:49.851Z,99.08
2018-02-11T22:54:25.735Z,99.17
2018-02-11T22:56:56.383Z,99.11
2018-02-11T22:59:27.375Z,99.12
2018-02-11T23:01:57.130Z,99.03
2018-02-11T23:04:27.199Z,99.03
2018-02-11T23:06:57.579Z,99.00
2018-02-11T23:09:28.596Z,98.97
2018-02-11T23:11:57.080Z,98.97
2018-02-11T23:14:27.828Z,98.94
2018-02-11T23:16:56.513Z,98.94
2018-02-11T23:19:30.174Z,98.94
2018-02-11T23:21:59.432Z,98.90
2018-02-11T23:24:30.042Z,98.87
2018-02-11T23:27:00.338Z,98.88
2018-02-11T23:29:33.461Z,98.90
2018-02-11T23:32:02.096Z,98.88
2018-02-11T23:34:30.477Z,98.86
2018-02-11T23:37:00.961Z,98.85
2018-02-11T23:39:29.547Z,98.86
2018-02-11T23:41:58.015Z,98.83
2018-02-11T23:44:26.601Z,98.86
2018-02-11T23:46:55.094Z,98.91
2018-02-11T23:49:26.106Z,98.98
2018-02-11T23:51:55.030Z,98.98
2018-02-11T23:54:25.488Z,98.96
2018-02-11T23:56:58.401Z,98.98
2018-02-11T23:59:28.658Z,99.00
